Time;durP1;ratioP1;P1;durP2;ratioP2;P2;SDS_P1;SDS_P2;PMS_P1;PMS_P2;Temp;Humidity;BMP_temperature;BMP_pressure;BME280_temperature;BME280_humidity;BME280_pressure;Samples;Min_cycle;Max_cycle;Signal;HPM_P1;HPM_P2
2021/01/29 00:02:04;;;;;;;8.18;3.50;;;16.50;57.80;;;;;;5104049;28;20020;-60
2021/01/29 00:04:30;;;;;;;6.38;3.28;;;16.50;58.10;;;;;;5100738;28;20032;-60
2021/01/29 00:06:55;;;;;;;7.13;3.20;;;16.40;57.90;;;;;;5095866;28;20036;-61
2021/01/29 00:09:21;;;;;;;7.10;3.00;;;16.50;57.90;;;;;;5096848;28;20028;-61
2021/01/29 00:11:47;;;;;;;5.88;3.08;;;16.50;57.70;;;;;;5093926;28;20081;-60
2021/01/29 00:14:13;;;;;;;6.63;3.20;;;16.40;57.40;;;;;;5097498;28;20024;-60
2021/01/29 00:16:38;;;;;;;8.75;3.08;;;16.40;57.80;;;;;;5092862;28;20016;-59
2021/01/29 00:19:04;;;;;;;6.38;3.35;;;16.40;57.60;;;;;;5088972;28;20008;-60
2021/01/29 00:21:29;;;;;;;7.32;3.17;;;16.40;57.60;;;;;;5089024;28;20020;-59
2021/01/29 00:23:55;;;;;;;5.85;3.00;;;16.40;57.80;;;;;;5088994;28;20031;-59
2021/01/29 00:26:21;;;;;;;6.45;2.92;;;16.30;57.90;;;;;;5084486;28;20042;-59
2021/01/29 00:28:46;;;;;;;6.00;3.00;;;16.30;57.30;;;;;;5109582;28;20024;-60
2021/01/29 00:31:12;;;;;;;6.50;3.15;;;16.40;58.00;;;;;;5106523;28;20028;-63
2021/01/29 00:33:37;;;;;;;7.43;3.10;;;16.30;57.60;;;;;;5087671;28;20034;-61
2021/01/29 00:36:04;;;;;;;7.57;3.67;;;16.30;57.60;;;;;;5084704;28;20024;-60
2021/01/29 00:38:30;;;;;;;6.72;3.08;;;16.30;57.60;;;;;;5088022;28;20048;-62
2021/01/29 00:40:56;;;;;;;8.38;3.50;;;16.30;57.30;;;;;;5089810;28;20487;-60
2021/01/29 00:43:21;;;;;;;5.45;2.92;;;16.30;57.50;;;;;;5088514;28;20477;-60
2021/01/29 00:45:47;;;;;;;6.35;3.17;;;16.30;57.50;;;;;;5090192;28;20085;-59
2021/01/29 00:48:13;;;;;;;6.22;3.22;;;16.30;57.80;;;;;;5072178;28;20081;-60
2021/01/29 00:50:39;;;;;;;5.03;2.58;;;16.30;57.50;;;;;;5089072;28;20463;-61
2021/01/29 00:53:06;;;;;;;8.57;3.25;;;16.30;57.80;;;;;;5090000;28;20099;-61
2021/01/29 00:55:32;;;;;;;8.00;3.20;;;16.20;57.60;;;;;;5090120;28;20028;-60
2021/01/29 00:57:57;;;;;;;6.88;3.10;;;16.30;57.50;;;;;;5090328;28;20077;-60
2021/01/29 01:00:23;;;;;;;6.10;2.95;;;16.30;57.60;;;;;;5093079;28;20103;-61
2021/01/29 01:02:49;;;;;;;5.93;2.80;;;16.30;57.40;;;;;;5092764;28;20028;-63
2021/01/29 01:05:17;;;;;;;7.15;2.78;;;16.20;57.60;;;;;;5093064;28;20055;-59
2021/01/29 01:07:43;;;;;;;6.68;2.95;;;16.20;57.70;;;;;;5103732;28;20614;-60
2021/01/29 01:10:09;;;;;;;7.50;2.95;;;16.30;58.20;;;;;;5092605;28;20028;-60
2021/01/29 01:12:35;;;;;;;5.45;2.92;;;16.20;57.40;;;;;;5093511;28;20046;-62
2021/01/29 01:15:09;;;;;;;7.30;3.15;;;16.30;57.50;;;;;;5088513;28;20015;-60
2021/01/29 01:17:35;;;;;;;7.32;3.03;;;16.30;57.40;;;;;;5091789;28;20031;-62
2021/01/29 01:20:00;;;;;;;6.50;2.75;;;16.20;57.30;;;;;;5099291;28;20533;-60
2021/01/29 01:22:26;;;;;;;7.13;3.03;;;16.20;57.50;;;;;;5108837;28;20120;-60
2021/01/29 01:24:51;;;;;;;6.85;3.08;;;16.20;57.70;;;;;;5090617;28;20541;-61
2021/01/29 01:27:18;;;;;;;5.80;3.22;;;16.10;57.80;;;;;;5099499;28;20027;-62
2021/01/29 01:29:44;;;;;;;6.68;2.85;;;16.10;57.60;;;;;;5101719;28;20085;-61
2021/01/29 01:32:10;;;;;;;5.85;2.80;;;16.20;57.70;;;;;;5107957;28;20065;-61
2021/01/29 01:34:35;;;;;;;6.82;2.90;;;16.10;57.60;;;;;;5097130;28;20145;-62
2021/01/29 01:37:02;;;;;;;5.55;2.65;;;16.10;57.70;;;;;;5108831;28;20492;-62
2021/01/29 01:39:28;;;;;;;5.75;3.00;;;16.10;57.70;;;;;;5102528;28;20020;-62
2021/01/29 01:41:55;;;;;;;7.55;3.00;;;16.10;57.50;;;;;;5101311;28;20028;-61
2021/01/29 01:44:40;;;;;;;7.85;3.47;;;16.10;57.70;;;;;;5108801;28;20442;-60
2021/01/29 01:47:43;;;;;;;4.97;2.83;;;16.00;57.50;;;;;;5084807;28;20028;-61
2021/01/29 01:50:22;;;;;;;5.60;2.95;;;16.00;57.50;;;;;;5096808;28;20036;-59
2021/01/29 01:52:48;;;;;;;5.45;2.80;;;16.00;57.60;;;;;;5109512;28;20020;-60
2021/01/29 01:55:21;;;;;;;5.10;2.70;;;16.00;57.40;;;;;;5098677;28;20102;-60
2021/01/29 01:57:51;;;;;;;6.65;2.40;;;16.00;57.60;;;;;;5083800;28;20020;-59
2021/01/29 02:00:28;;;;;;;5.45;2.95;;;16.00;57.60;;;;;;5093080;28;20123;-62
2021/01/29 02:03:06;;;;;;;6.10;2.70;;;16.00;57.50;;;;;;5091390;28;20055;-61
2021/01/29 02:05:36;;;;;;;5.45;2.65;;;16.00;57.50;;;;;;5095479;28;20085;-60
2021/01/29 02:08:07;;;;;;;6.22;3.10;;;16.00;57.20;;;;;;5092635;28;20067;-59
2021/01/29 02:10:34;;;;;;;4.82;2.55;;;16.00;57.40;;;;;;5092389;28;20443;-60
2021/01/29 02:13:01;;;;;;;5.45;2.92;;;16.00;57.50;;;;;;5093381;28;20020;-59
2021/01/29 02:15:30;;;;;;;5.50;2.67;;;16.00;57.50;;;;;;5113042;28;20023;-59
2021/01/29 02:18:07;;;;;;;5.10;2.88;;;15.90;57.20;;;;;;5112826;28;20028;-60
2021/01/29 02:21:12;;;;;;;5.47;2.80;;;15.90;57.40;;;;;;5110124;28;20492;-60
2021/01/29 02:24:02;;;;;;;5.10;2.60;;;15.90;57.40;;;;;;5090725;28;20489;-60
2021/01/29 02:26:57;;;;;;;4.97;2.55;;;15.90;57.40;;;;;;5092336;28;20032;-60
2021/01/29 02:29:35;;;;;;;4.43;2.65;;;15.90;57.40;;;;;;5091008;28;20114;-60
2021/01/29 02:32:03;;;;;;;5.32;2.42;;;15.90;57.30;;;;;;5092042;28;20409;-61
2021/01/29 02:35:03;;;;;;;6.35;2.90;;;15.90;57.30;;;;;;5092176;28;20035;-59
2021/01/29 02:37:55;;;;;;;6.13;2.47;;;15.90;57.50;;;;;;5086097;28;20070;-62
2021/01/29 02:40:38;;;;;;;8.38;2.63;;;15.80;57.50;;;;;;5070421;28;20485;-61
2021/01/29 02:43:09;;;;;;;5.82;2.70;;;15.80;57.50;;;;;;5071436;28;20052;-62
2021/01/29 02:45:58;;;;;;;6.03;3.05;;;15.80;57.30;;;;;;5071733;28;20027;-60
2021/01/29 02:48:43;;;;;;;4.72;2.42;;;15.90;57.30;;;;;;5059732;28;20071;-61
2021/01/29 02:51:23;;;;;;;5.30;2.55;;;15.80;57.30;;;;;;5069800;28;20036;-59
2021/01/29 02:53:56;;;;;;;4.68;2.38;;;15.80;57.60;;;;;;5070023;28;20024;-62
2021/01/29 02:56:24;;;;;;;6.65;2.90;;;15.80;57.60;;;;;;5071303;28;20023;-60
2021/01/29 02:59:16;;;;;;;5.70;2.53;;;15.80;57.30;;;;;;5071151;28;20646;-60
2021/01/29 03:01:56;;;;;;;6.53;2.80;;;15.80;57.40;;;;;;5069745;28;20032;-60
2021/01/29 03:04:29;;;;;;;4.95;2.58;;;15.80;57.50;;;;;;5069811;28;20115;-59
2021/01/29 03:07:07;;;;;;;5.40;2.58;;;15.80;57.40;;;;;;5083013;28;20397;-62
2021/01/29 03:09:53;;;;;;;4.38;2.30;;;15.80;57.30;;;;;;5091618;28;20089;-60
2021/01/29 03:12:31;;;;;;;5.07;2.47;;;15.80;57.30;;;;;;5091326;28;20035;-59
2021/01/29 03:14:59;;;;;;;3.88;2.17;;;15.70;57.10;;;;;;5091448;28;20106;-59
2021/01/29 03:17:33;;;;;;;6.70;2.50;;;15.70;57.10;;;;;;5091332;28;20024;-60
2021/01/29 03:20:11;;;;;;;4.10;2.20;;;15.70;57.40;;;;;;5091203;28;20028;-60
2021/01/29 03:22:48;;;;;;;6.18;2.55;;;15.70;57.30;;;;;;5088857;28;20118;-60
2021/01/29 03:25:35;;;;;;;5.50;2.33;;;15.70;57.40;;;;;;5089276;28;20609;-62
2021/01/29 03:28:10;;;;;;;3.75;2.17;;;15.70;57.40;;;;;;5090772;28;20086;-60
2021/01/29 03:30:40;;;;;;;5.68;2.40;;;15.70;57.40;;;;;;5090926;28;20024;-60
2021/01/29 03:33:10;;;;;;;4.97;2.40;;;15.70;57.10;;;;;;5089317;28;20020;-58
2021/01/29 03:35:43;;;;;;;5.35;2.30;;;15.70;57.40;;;;;;5087949;28;20012;-59
2021/01/29 03:38:19;;;;;;;6.03;2.40;;;15.70;57.30;;;;;;5090744;28;20070;-61
2021/01/29 03:40:56;;;;;;;4.78;2.28;;;15.70;57.20;;;;;;5090864;28;20028;-61
2021/01/29 03:43:35;;;;;;;4.32;1.98;;;15.70;57.40;;;;;;5089556;28;20020;-60
2021/01/29 03:46:17;;;;;;;5.10;2.47;;;15.70;57.40;;;;;;5090829;28;20072;-58
2021/01/29 03:48:48;;;;;;;6.05;2.20;;;15.60;57.30;;;;;;5090612;28;20358;-60
2021/01/29 03:51:35;;;;;;;3.95;1.98;;;15.70;57.30;;;;;;5089122;28;20486;-60
2021/01/29 03:54:16;;;;;;;3.55;2.00;;;15.60;57.00;;;;;;5090630;28;20031;-59
2021/01/29 03:57:12;;;;;;;5.03;2.03;;;15.60;57.40;;;;;;5090560;28;20103;-58
2021/01/29 03:59:49;;;;;;;4.55;2.30;;;15.60;57.30;;;;;;5090644;28;20028;-59
2021/01/29 04:02:29;;;;;;;4.53;2.08;;;15.60;57.30;;;;;;5088941;28;20118;-60
2021/01/29 04:05:04;;;;;;;4.50;2.20;;;15.60;57.30;;;;;;5090428;28;20035;-59
2021/01/29 04:07:38;;;;;;;3.78;1.83;;;15.60;57.40;;;;;;5088763;28;20028;-59
2021/01/29 04:10:08;;;;;;;4.85;2.05;;;15.60;57.40;;;;;;5090568;28;20038;-59
2021/01/29 04:12:42;;;;;;;4.18;1.95;;;15.60;57.40;;;;;;5088769;28;20027;-60
2021/01/29 04:15:18;;;;;;;4.18;2.13;;;15.60;57.40;;;;;;5089100;28;20477;-59
2021/01/29 04:17:51;;;;;;;4.38;1.98;;;15.50;57.10;;;;;;5089044;28;20024;-60
2021/01/29 04:20:38;;;;;;;4.03;1.98;;;15.50;57.30;;;;;;5089007;28;20512;-61
2021/01/29 04:23:09;;;;;;;4.70;2.00;;;15.60;57.40;;;;;;5089892;28;20116;-60
2021/01/29 04:25:41;;;;;;;4.90;1.98;;;15.60;57.40;;;;;;5088750;28;20028;-60
2021/01/29 04:28:13;;;;;;;4.13;2.00;;;15.60;57.50;;;;;;5090213;28;20485;-60
2021/01/29 04:30:41;;;;;;;;;;;15.50;57.20;;;;;;5089260;28;20127;-60
2021/01/29 04:33:39;;;;;;;4.90;2.00;;;15.50;57.30;;;;;;5089184;28;19904;-59
2021/01/29 04:36:06;;;;;;;4.55;1.98;;;15.60;57.20;;;;;;5094252;28;20020;-60
2021/01/29 04:38:40;;;;;;;3.78;1.85;;;15.60;57.30;;;;;;5092973;28;20400;-59
2021/01/29 04:41:23;;;;;;;3.85;1.90;;;15.50;57.40;;;;;;5093962;28;20401;-59
2021/01/29 04:43:54;;;;;;;3.15;1.70;;;15.60;57.40;;;;;;5094275;28;20115;-60
2021/01/29 04:46:46;;;;;;;5.40;2.08;;;15.50;57.30;;;;;;5094151;28;20481;-59
2021/01/29 04:49:34;;;;;;;3.42;1.88;;;15.50;57.30;;;;;;5092843;28;20032;-59
2021/01/29 04:52:36;;;;;;;3.75;1.88;;;15.50;57.30;;;;;;5093937;28;20027;-59
2021/01/29 04:55:30;;;;;;;3.85;1.80;;;15.60;57.10;;;;;;5092696;28;20511;-63
2021/01/29 04:58:10;;;;;;;4.22;1.88;;;15.60;57.20;;;;;;5093947;28;20096;-60
2021/01/29 05:01:07;;;;;;;3.70;1.90;;;15.50;57.30;;;;;;5093878;28;20435;-60
2021/01/29 05:03:51;;;;;;;4.03;1.90;;;15.50;57.20;;;;;;5093869;28;20024;-59
2021/01/29 05:06:38;;;;;;;4.40;1.70;;;15.50;57.00;;;;;;5087260;28;20028;-59
2021/01/29 05:09:29;;;;;;;3.72;1.70;;;15.50;57.10;;;;;;5112530;28;20023;-60
2021/01/29 05:12:21;;;;;;;3.85;1.63;;;15.40;57.10;;;;;;5113739;28;20395;-59
2021/01/29 05:14:50;;;;;;;3.42;1.65;;;15.40;57.30;;;;;;5109574;28;20031;-59
2021/01/29 05:17:53;;;;;;;3.83;1.98;;;15.40;57.30;;;;;;5093491;28;20107;-61
2021/01/29 05:20:19;;;;;;;4.28;1.80;;;15.40;57.30;;;;;;5093485;28;20473;-60
2021/01/29 05:22:50;;;;;;;4.45;1.67;;;15.30;57.30;;;;;;5093160;28;20016;-60
2021/01/29 05:25:44;;;;;;;3.40;1.73;;;15.30;57.30;;;;;;5092865;28;20035;-60
2021/01/29 05:28:24;;;;;;;3.47;1.67;;;15.30;57.30;;;;;;5093261;28;20020;-58
2021/01/29 05:30:52;;;;;;;5.33;1.83;;;15.30;57.50;;;;;;5091837;28;20429;-61
2021/01/29 05:33:41;;;;;;;3.30;1.70;;;15.40;57.80;;;;;;5092948;28;20638;-61
2021/01/29 05:36:21;;;;;;;5.65;3.63;;;15.40;58.30;;;;;;5091486;28;20081;-60
2021/01/29 05:39:23;;;;;;;5.90;3.58;;;15.40;57.80;;;;;;5093059;28;20020;-59
2021/01/29 05:42:06;;;;;;;7.65;2.60;;;15.50;58.00;;;;;;5092393;28;20084;-60
2021/01/29 05:45:08;;;;;;;3.65;2.00;;;15.60;57.90;;;;;;5091097;28;20037;-60
2021/01/29 05:48:04;;;;;;;5.72;2.05;;;15.60;57.60;;;;;;5092727;28;20028;-60
2021/01/29 05:50:36;;;;;;;3.78;1.80;;;15.70;57.30;;;;;;5092858;28;20028;-60
2021/01/29 05:53:24;;;;;;;4.65;2.00;;;15.80;57.30;;;;;;5092577;28;20020;-59
2021/01/29 05:56:15;;;;;;;3.88;1.67;;;15.80;57.00;;;;;;5092582;28;20032;-60
2021/01/29 05:59:19;;;;;;;4.72;2.00;;;15.90;57.00;;;;;;5091458;28;20047;-60
2021/01/29 06:02:17;;;;;;;5.85;1.65;;;15.80;57.30;;;;;;5092423;28;20035;-59
2021/01/29 06:05:07;;;;;;;3.17;1.80;;;15.80;57.20;;;;;;5092637;28;20058;-60
2021/01/29 06:07:44;;;;;;;9.07;1.77;;;15.90;57.30;;;;;;5091530;28;20431;-61
2021/01/29 06:10:44;;;;;;;9.57;2.10;;;15.80;57.60;;;;;;5092447;28;20393;-61
2021/01/29 06:13:31;;;;;;;11.90;1.85;;;15.80;57.80;;;;;;5092237;28;20020;-60
2021/01/29 06:16:15;;;;;;;11.07;2.08;;;15.80;58.00;;;;;;5092339;28;20499;-60
2021/01/29 06:19:08;;;;;;;8.55;2.03;;;15.70;58.20;;;;;;5092067;28;20028;-61
2021/01/29 06:22:01;;;;;;;15.70;3.63;;;15.70;58.50;;;;;;5090805;28;20062;-60
2021/01/29 06:25:05;;;;;;;23.10;10.30;;;15.70;58.70;;;;;;5083626;28;20032;-60
2021/01/29 06:27:46;;;;;;;12.20;5.85;;;15.90;58.50;;;;;;5082589;28;20534;-59
2021/01/29 06:30:30;;;;;;;32.58;6.32;;;15.90;58.40;;;;;;5073105;28;20482;-59
2021/01/29 06:33:17;;;;;;;16.83;8.23;;;15.80;58.60;;;;;;5076128;28;20109;-61
2021/01/29 06:36:14;;;;;;;14.98;5.70;;;15.90;59.00;;;;;;5071005;28;20103;-61
2021/01/29 06:39:06;;;;;;;13.00;5.10;;;15.90;59.10;;;;;;5065205;28;20024;-59
2021/01/29 06:42:09;;;;;;;12.52;5.97;;;15.90;58.80;;;;;;5069917;28;20016;-60
2021/01/29 06:44:53;;;;;;;9.07;4.63;;;15.90;58.90;;;;;;5069955;28;20028;-60
2021/01/29 06:47:26;;;;;;;9.27;4.43;;;15.90;58.70;;;;;;5092118;28;20089;-60
2021/01/29 06:50:16;;;;;;;13.80;4.13;;;16.00;58.90;;;;;;5082428;28;20060;-60
2021/01/29 06:52:50;;;;;;;9.15;3.67;;;15.80;59.40;;;;;;5076840;28;20052;-61
2021/01/29 06:55:42;;;;;;;12.25;4.43;;;15.90;59.70;;;;;;5095043;28;20133;-61
2021/01/29 06:58:10;;;;;;;9.63;3.40;;;15.80;60.20;;;;;;5086868;28;20028;-63
2021/01/29 07:00:39;;;;;;;18.25;4.15;;;15.90;60.10;;;;;;5089556;28;20571;-63
2021/01/29 07:03:19;;;;;;;8.68;3.33;;;15.90;58.90;;;;;;5088466;28;20051;-61
2021/01/29 07:05:45;;;;;;;11.65;3.50;;;15.90;58.90;;;;;;5088053;28;20028;-63
2021/01/29 07:08:10;;;;;;;11.07;3.85;;;15.90;59.20;;;;;;5088138;28;20039;-61
2021/01/29 07:11:04;;;;;;;9.15;3.03;;;15.80;59.30;;;;;;5089113;28;20028;-59
2021/01/29 07:13:53;;;;;;;8.98;3.30;;;15.90;59.80;;;;;;5087009;28;20016;-64
2021/01/29 07:16:22;;;;;;;8.57;3.35;;;15.80;60.20;;;;;;5087649;28;20107;-63
2021/01/29 07:19:12;;;;;;;7.85;3.10;;;15.70;60.90;;;;;;5087810;28;20012;-61
2021/01/29 07:22:16;;;;;;;8.55;2.95;;;15.80;60.70;;;;;;5088803;28;20020;-64
2021/01/29 07:25:14;;;;;;;5.72;2.72;;;15.70;60.70;;;;;;5085122;28;20028;-61
2021/01/29 07:27:58;;;;;;;11.38;4.80;;;15.80;60.90;;;;;;5088273;28;20024;-62
2021/01/29 07:30:53;;;;;;;8.50;3.72;;;15.80;60.30;;;;;;5085847;28;20031;-60
2021/01/29 07:33:32;;;;;;;8.98;3.90;;;15.70;60.40;;;;;;5089616;28;20072;-61
2021/01/29 07:36:36;;;;;;;7.85;4.25;;;15.80;60.30;;;;;;5089456;28;20500;-60
2021/01/29 07:39:30;;;;;;;9.68;4.25;;;15.90;60.00;;;;;;5088453;28;20016;-59
2021/01/29 07:42:20;;;;;;;6.45;3.40;;;15.90;59.80;;;;;;5089265;28;20519;-60
2021/01/29 07:44:46;;;;;;;7.00;3.45;;;15.90;59.70;;;;;;5088272;28;20027;-61
2021/01/29 07:47:36;;;;;;;8.05;2.97;;;15.90;59.50;;;;;;5088119;28;20028;-63
2021/01/29 07:50:13;;;;;;;6.03;2.80;;;15.90;59.60;;;;;;5086100;28;20051;-61
2021/01/29 07:53:00;;;;;;;6.28;2.80;;;16.00;59.60;;;;;;5087805;28;20046;-61
2021/01/29 07:55:28;;;;;;;6.38;3.00;;;16.00;59.50;;;;;;5089550;28;20023;-63
2021/01/29 07:58:02;;;;;;;6.45;2.88;;;16.10;59.40;;;;;;5089285;28;20020;-60
2021/01/29 08:00:41;;;;;;;6.32;2.60;;;16.00;59.40;;;;;;5089386;28;20073;-61
2021/01/29 08:03:33;;;;;;;6.90;2.97;;;16.00;59.50;;;;;;5087561;28;20489;-61
2021/01/29 08:06:06;;;;;;;8.07;2.60;;;16.00;59.50;;;;;;5078331;28;20105;-60
2021/01/29 08:08:48;;;;;;;4.22;2.38;;;16.10;59.60;;;;;;5089410;28;20016;-63
2021/01/29 08:11:15;;;;;;;4.53;2.22;;;16.10;59.40;;;;;;5087342;28;20044;-62
2021/01/29 08:13:49;;;;;;;4.18;2.10;;;16.10;59.30;;;;;;5087793;28;20020;-63
2021/01/29 08:16:37;;;;;;;6.95;2.83;;;16.20;59.30;;;;;;5083729;28;20020;-63
2021/01/29 08:19:26;;;;;;;6.18;2.40;;;16.20;59.30;;;;;;5084996;28;20024;-62
2021/01/29 08:22:02;;;;;;;6.50;2.20;;;16.10;59.10;;;;;;5066127;28;20032;-60
2021/01/29 08:24:47;;;;;;;5.45;2.20;;;16.10;59.20;;;;;;5085049;28;20081;-62
2021/01/29 08:27:42;;;;;;;4.60;2.10;;;16.20;59.30;;;;;;5089935;28;20032;-61
2021/01/29 08:30:13;;;;;;;10.00;2.30;;;16.20;59.20;;;;;;5085936;28;20031;-62
2021/01/29 08:33:02;;;;;;;7.60;2.60;;;16.20;59.20;;;;;;5081255;28;20024;-61
2021/01/29 08:36:01;;;;;;;6.32;2.30;;;16.20;59.20;;;;;;5070263;28;20552;-61
2021/01/29 08:38:58;;;;;;;6.07;2.05;;;16.10;59.10;;;;;;5068429;28;20035;-62
2021/01/29 08:41:44;;;;;;;5.10;2.00;;;16.10;59.10;;;;;;5068532;28;20024;-61
2021/01/29 08:44:29;;;;;;;6.13;1.92;;;16.10;59.00;;;;;;5072519;28;20029;-61
2021/01/29 08:47:21;;;;;;;6.70;2.00;;;16.10;58.90;;;;;;5073533;28;20103;-60
2021/01/29 08:50:02;;;;;;;8.55;2.10;;;16.10;58.70;;;;;;5062455;28;20042;-60
2021/01/29 08:52:56;;;;;;;7.78;2.00;;;16.10;58.80;;;;;;5080158;28;20043;-61
2021/01/29 08:56:00;;;;;;;7.30;2.20;;;16.20;58.70;;;;;;5096253;28;20097;-63
2021/01/29 08:58:43;;;;;;;7.20;2.00;;;16.20;58.60;;;;;;5102924;28;20105;-60
2021/01/29 09:01:20;;;;;;;6.78;2.15;;;16.20;58.70;;;;;;5089993;28;20059;-62
2021/01/29 09:03:53;;;;;;;6.32;2.05;;;16.20;58.70;;;;;;5090029;28;20020;-61
2021/01/29 09:06:24;;;;;;;12.27;9.13;;;16.20;58.60;;;;;;5090146;28;20035;-60
2021/01/29 09:08:58;;;;;;;12.13;4.60;;;16.10;58.80;;;;;;5089934;28;20107;-61
2021/01/29 09:11:42;;;;;;;9.75;3.05;;;16.20;58.90;;;;;;5088503;28;20048;-60
2021/01/29 09:14:17;;;;;;;8.75;3.25;;;16.10;59.20;;;;;;5089378;28;20600;-60
2021/01/29 09:16:44;;;;;;;11.00;3.47;;;16.20;58.70;;;;;;5087165;28;20077;-61
2021/01/29 09:19:18;;;;;;;13.52;3.65;;;16.30;59.00;;;;;;5082719;28;20024;-60
2021/01/29 09:22:14;;;;;;;8.25;2.90;;;16.30;59.20;;;;;;5089208;28;20031;-60
2021/01/29 09:25:09;;;;;;;6.93;2.85;;;16.40;58.60;;;;;;5093053;28;20485;-63
2021/01/29 09:27:49;;;;;;;8.98;3.13;;;16.30;58.60;;;;;;5083816;28;20051;-61
2021/01/29 09:30:29;;;;;;;10.07;2.60;;;16.30;58.70;;;;;;5090850;28;20032;-61
2021/01/29 09:33:00;;;;;;;6.45;2.53;;;16.30;58.70;;;;;;5083716;28;20024;-61
2021/01/29 09:35:40;;;;;;;8.82;2.83;;;16.40;58.40;;;;;;5083932;28;20021;-61
2021/01/29 09:38:11;;;;;;;6.95;2.58;;;16.50;58.30;;;;;;5092575;28;20028;-60
2021/01/29 09:40:48;;;;;;;10.45;2.63;;;16.40;58.70;;;;;;5092713;28;20543;-59
2021/01/29 09:43:33;;;;;;;6.03;2.33;;;16.50;58.70;;;;;;5090218;28;20035;-61
2021/01/29 09:46:00;;;;;;;8.10;2.58;;;16.40;58.80;;;;;;5088898;28;20085;-60
2021/01/29 09:48:26;;;;;;;7.30;2.35;;;16.40;58.80;;;;;;5088071;28;20097;-62
2021/01/29 09:51:10;;;;;;;7.50;2.35;;;16.40;58.90;;;;;;5070592;28;20108;-61
2021/01/29 09:53:44;;;;;;;9.20;2.40;;;16.30;59.00;;;;;;5082056;28;20509;-61
2021/01/29 09:56:23;;;;;;;84.05;60.45;;;16.30;59.10;;;;;;5073432;28;20508;-60
2021/01/29 09:59:17;;;;;;;23.75;8.25;;;16.40;58.80;;;;;;5077717;28;20504;-62
2021/01/29 10:01:48;;;;;;;17.67;7.07;;;16.40;58.90;;;;;;5080083;28;20063;-62
2021/01/29 10:04:46;;;;;;;17.48;8.95;;;16.40;58.80;;;;;;5071359;28;20032;-61
2021/01/29 10:07:15;;;;;;;16.55;8.23;;;16.40;58.50;;;;;;5080574;28;20051;-61
2021/01/29 10:09:56;;;;;;;18.45;6.28;;;16.50;58.70;;;;;;5071975;28;20078;-61
2021/01/29 10:12:27;;;;;;;23.38;6.93;;;16.60;59.00;;;;;;5077552;28;20378;-61
2021/01/29 10:15:06;;;;;;;17.15;6.25;;;16.70;58.90;;;;;;5077237;28;20074;-62
2021/01/29 10:17:43;;;;;;;14.13;5.70;;;16.70;58.40;;;;;;5075031;28;20028;-60
2021/01/29 10:20:18;;;;;;;12.95;5.43;;;16.90;58.00;;;;;;5090930;28;20027;-61
2021/01/29 10:22:57;;;;;;;11.20;5.18;;;17.00;58.10;;;;;;5081958;28;20109;-59
2021/01/29 10:25:56;;;;;;;12.45;5.53;;;17.10;58.10;;;;;;5070737;28;20020;-60
2021/01/29 10:28:55;;;;;;;11.05;4.93;;;17.20;58.30;;;;;;5090907;28;20027;-62
2021/01/29 10:31:23;;;;;;;9.32;4.05;;;17.20;58.10;;;;;;5091998;28;20024;-60
2021/01/29 10:34:00;;;;;;;13.02;4.90;;;17.30;58.40;;;;;;5091127;28;20145;-59
2021/01/29 10:36:30;;;;;;;14.35;4.13;;;17.30;58.60;;;;;;5105834;28;20504;-62
2021/01/29 10:39:12;;;;;;;18.60;5.03;;;17.30;58.70;;;;;;5085390;28;20024;-60
2021/01/29 10:42:08;;;;;;;10.32;4.53;;;17.30;59.60;;;;;;5071322;28;20050;-62
2021/01/29 10:44:35;;;;;;;18.65;6.05;;;17.40;58.70;;;;;;5088761;28;20111;-62
2021/01/29 10:47:37;;;;;;;15.95;4.53;;;17.30;59.60;;;;;;5073084;28;20375;-60
2021/01/29 10:50:15;;;;;;;18.55;4.95;;;17.40;59.10;;;;;;5077234;28;21080;-61
2021/01/29 10:53:08;;;;;;;17.13;5.57;;;17.30;59.50;;;;;;5088775;28;20123;-60
2021/01/29 10:55:37;;;;;;;13.07;4.55;;;17.20;59.50;;;;;;5078425;28;20060;-60
2021/01/29 10:58:17;;;;;;;16.55;5.07;;;17.20;59.60;;;;;;5086616;28;20509;-60
2021/01/29 11:00:54;;;;;;;11.20;4.38;;;17.10;59.60;;;;;;5084848;28;20087;-62
2021/01/29 11:03:40;;;;;;;12.00;4.22;;;17.10;59.50;;;;;;5081223;28;20081;-60
2021/01/29 11:06:10;;;;;;;13.75;3.95;;;17.10;59.70;;;;;;5082816;28;20032;-62
2021/01/29 11:08:42;;;;;;;16.75;4.65;;;17.10;60.30;;;;;;5072851;28;20028;-61
2021/01/29 11:11:22;;;;;;;16.70;4.90;;;17.00;61.00;;;;;;5072842;28;20036;-63
2021/01/29 11:14:02;;;;;;;14.32;4.13;;;17.00;61.50;;;;;;5080657;28;20145;-64
2021/01/29 11:16:55;;;;;;;13.50;4.17;;;17.00;61.80;;;;;;5075087;28;20230;-63
2021/01/29 11:19:38;;;;;;;17.48;4.47;;;17.10;62.50;;;;;;5079033;28;20271;-63
2021/01/29 11:22:13;;;;;;;13.85;4.20;;;17.00;62.30;;;;;;5069976;28;20033;-62
2021/01/29 11:24:44;;;;;;;13.55;4.10;;;17.00;63.00;;;;;;5077657;28;20028;-61
2021/01/29 11:27:45;;;;;;;25.92;4.10;;;17.00;63.20;;;;;;5079015;28;20083;-62
2021/01/29 11:30:27;;;;;;;15.73;4.65;;;16.90;63.20;;;;;;5083936;28;20048;-60
2021/01/29 11:33:11;;;;;;;28.20;4.95;;;16.90;63.40;;;;;;5083161;28;20027;-60
2021/01/29 11:35:50;;;;;;;27.33;4.65;;;16.90;63.00;;;;;;5086199;28;20032;-62
2021/01/29 11:38:48;;;;;;;20.02;4.00;;;16.90;62.00;;;;;;5081212;28;20031;-60
2021/01/29 11:41:45;;;;;;;16.92;4.13;;;16.90;62.20;;;;;;5072023;28;20032;-60
2021/01/29 11:44:34;;;;;;;14.82;3.80;;;16.90;62.00;;;;;;5088549;28;20020;-63
2021/01/29 11:47:32;;;;;;;14.60;3.58;;;16.90;62.30;;;;;;5101010;28;20027;-61
2021/01/29 11:50:41;;;;;;;15.80;3.70;;;16.80;62.30;;;;;;5111283;28;20445;-62
2021/01/29 11:53:49;;;;;;;14.80;3.67;;;16.90;61.90;;;;;;5088171;28;20032;-60
2021/01/29 11:56:31;;;;;;;11.50;3.50;;;16.80;62.10;;;;;;5045604;28;20271;-60
2021/01/29 11:59:00;;;;;;;11.55;3.20;;;16.90;61.80;;;;;;5096158;28;20556;-59
2021/01/29 12:01:54;;;;;;;21.13;7.88;;;16.90;61.50;;;;;;5093717;28;20430;-63
2021/01/29 12:04:43;;;;;;;12.55;4.47;;;16.90;61.60;;;;;;5099739;28;20039;-60
2021/01/29 12:07:21;;;;;;;15.70;5.70;;;16.90;61.50;;;;;;5085879;28;20028;-60
2021/01/29 12:09:47;;;;;;;23.17;9.60;;;16.90;62.10;;;;;;5084194;28;20632;-59
2021/01/29 12:12:35;;;;;;;21.95;7.20;;;16.90;62.00;;;;;;5084186;28;20099;-63
2021/01/29 12:15:16;;;;;;;12.27;5.32;;;17.00;62.30;;;;;;5067921;28;20031;-61
2021/01/29 12:17:55;;;;;;;;;;;16.90;61.90;;;;;;5069789;28;20016;-60
2021/01/29 12:20:26;;;;;;;16.27;5.78;;;17.00;61.80;;;;;;5080402;28;20327;-61
2021/01/29 12:23:30;;;;;;;13.52;5.18;;;17.00;61.90;;;;;;5080331;28;20055;-61
2021/01/29 12:26:25;;;;;;;10.45;4.20;;;17.00;61.80;;;;;;5084511;28;20048;-60
2021/01/29 12:29:18;;;;;;;9.90;3.80;;;17.00;61.60;;;;;;5069814;28;20374;-61
2021/01/29 12:32:09;;;;;;;9.02;3.72;;;17.10;61.90;;;;;;5071437;28;20028;-62
2021/01/29 12:34:45;;;;;;;7.82;3.60;;;17.10;61.90;;;;;;5075064;28;20431;-61
2021/01/29 12:37:11;;;;;;;12.63;3.97;;;17.10;61.70;;;;;;5081770;28;20035;-61
2021/01/29 12:39:50;;;;;;;10.52;3.40;;;17.10;61.50;;;;;;5079620;28;20025;-61
2021/01/29 12:42:24;;;;;;;11.52;4.10;;;17.20;61.30;;;;;;5066639;28;20079;-62
2021/01/29 12:45:10;;;;;;;12.68;3.95;;;17.20;62.30;;;;;;5084845;28;20020;-60
2021/01/29 12:47:55;;;;;;;8.30;3.45;;;17.30;61.90;;;;;;5085895;28;20617;-61
2021/01/29 12:50:30;;;;;;;11.85;3.53;;;17.30;61.10;;;;;;5077494;28;20032;-61
2021/01/29 12:53:03;;;;;;;10.63;2.85;;;17.30;61.10;;;;;;5079542;28;20119;-61
2021/01/29 12:55:34;;;;;;;7.20;2.80;;;17.40;61.80;;;;;;5073746;28;20020;-60
2021/01/29 12:58:03;;;;;;;8.68;2.80;;;17.40;61.60;;;;;;5076653;28;20032;-62
2021/01/29 13:00:38;;;;;;;11.18;4.05;;;17.40;61.40;;;;;;5078164;28;20381;-62
2021/01/29 13:03:23;;;;;;;6.82;2.65;;;17.50;60.90;;;;;;5081797;28;20020;-62
2021/01/29 13:06:14;;;;;;;6.68;2.90;;;17.50;60.70;;;;;;5078074;28;20024;-61
2021/01/29 13:09:18;;;;;;;9.15;3.10;;;17.50;61.50;;;;;;5075377;28;20021;-62
2021/01/29 13:12:08;;;;;;;56.72;35.42;;;17.50;60.70;;;;;;5088238;28;20610;-62
2021/01/29 13:15:01;;;;;;;16.50;8.35;;;17.50;61.50;;;;;;5086571;28;20492;-60
2021/01/29 13:17:35;;;;;;;16.48;8.52;;;17.50;61.50;;;;;;5089835;28;20081;-62
2021/01/29 13:20:18;;;;;;;20.25;10.75;;;17.50;60.40;;;;;;5091445;28;20077;-61
2021/01/29 13:22:55;;;;;;;17.02;9.60;;;17.50;60.70;;;;;;5091602;28;20024;-60
2021/01/29 13:25:27;;;;;;;15.40;8.25;;;17.50;61.00;;;;;;5078554;28;20366;-63
2021/01/29 13:28:04;;;;;;;13.45;7.82;;;17.50;60.80;;;;;;5083938;28;20020;-62
2021/01/29 13:30:34;;;;;;;14.73;7.07;;;17.50;60.90;;;;;;5099941;28;20027;-61
2021/01/29 13:33:24;;;;;;;12.95;6.72;;;17.50;61.10;;;;;;5091745;28;20027;-60
2021/01/29 13:36:16;;;;;;;12.10;6.43;;;17.50;60.90;;;;;;5076670;28;20056;-61
2021/01/29 13:38:42;;;;;;;15.38;8.07;;;17.40;61.30;;;;;;5070923;28;20447;-61
2021/01/29 13:41:20;;;;;;;15.57;9.27;;;17.40;60.40;;;;;;5069948;28;20055;-60
2021/01/29 13:43:46;;;;;;;13.52;7.22;;;17.40;61.50;;;;;;5081176;28;20035;-63
2021/01/29 13:46:26;;;;;;;13.80;6.13;;;17.40;60.60;;;;;;5090339;28;20119;-61
2021/01/29 13:49:21;;;;;;;13.70;7.32;;;17.40;60.90;;;;;;5071899;28;20031;-60